Hébergeur de fichiers indépendant

QuiévrainChievres60Kms.gpx

À propos

Type de fichier
Fichier GPX de 1 Ko (application/xml)
Confidentialité
Fichier public, envoyé le 27 février 2019 à 20:26, depuis l'adresse IP 79.132.x.x (Belgique)
Sécurité
Ne contient aucun Virus ou Malware connus - Dernière vérification: 02/06
Statistiques
La présente page de téléchargement a été vue 92 fois depuis l'envoi du fichier
Page de téléchargement

Aperçu du fichier


<?xml version="1.0" encoding="UTF-8"?>
<gpx creator="Garmin Connect" version="1.1"
  xsi:schemaLocation="http://www.topografix.com/GPX/1/1 http://www.topografix.com/GPX/11.xsd"
  xmlns:ns3="http://www.garmin.com/xmlschemas/TrackPointExtension/v1"
  xmlns="http://www.topografix.com/GPX/1/1"
  xmlns:xsi="http://www.w3.org/2001/XMLSchema-instance" xmlns:ns2="http://www.garmin.com/xmlschemas/GpxExtensions/v3">
  <metadata>
    <link href="connect.garmin.com">
      <text>Garmin Connect</text>
    </link>
    <time>2019-02-24T08:05:33.000Z</time>
  </metadata>
  <trk>
    <name>Quiévrain</name>
    <type>cycling</type>
    <trkseg>
      <trkpt lat="50.40788926184177398681640625" lon="3.6824407987296581268310546875">
        <ele>29</ele>
        <time>2019-02-24T08:05:33.000Z</time>
        <extensions>
          <ns3:TrackPointExtension>
            <ns3:atemp>10.0</ns3:atemp>
            <ns3:hr>101</ns3:hr>
          </ns3:TrackPointExtension>
        </extensions>
      </trkpt>
      <trkpt lat="50.40788113139569759368896484375" lon="3.68245949037373065948486328125">
        <ele>29</ele>
        <time>2019-02-24T08:05:34.000Z</time>
        <extensions>
          <ns3:TrackPointExtension>
            <ns3:atemp>10.0</ns3:atemp>
            <ns3:hr>102</ns3:hr>
          </ns3:TrackPointExtension>
        </extensions>
      </trkpt>
      <trkpt lat="50.40784575976431369781494140625" lon="3.682552278041839599609375">
        <ele>29.3999996185302734375</ele>
        <time>2019-02-24T08:05:38.000Z</time>
        <extensions>
          <ns3:TrackPointExtension>
            <ns3:atemp>10.0</ns3:atemp>
            <ns3:hr>105</ns3:hr>
          </ns3:TrackPointExtension>
        </extensions>
      </trkpt>
      <trkpt lat="50.4078282415866851806640625" lon="3.68258647620677947998046875">
        <ele>29.3999996185302734375</ele>
        <time>2019-02-24T08:05:39.000Z</time>
        <extensions>
          <ns3:TrackPointExtension>
            <ns3:atemp>10.0</ns3:atemp>
            <ns3:hr>105</ns3:hr>
          </ns3:TrackPointExtension>
        </extensions>
      </trkpt>
      <trkpt lat="50.4077861644327640533447265625" lon="3.68267004378139972686767578125">
        <ele>29.799999237060546875</ele>
        <time>2019-02-24T08:05:41.000Z</time>
        <extensions>
          <ns3:TrackPointExtension>
            <ns3:atemp>10.0</ns3:atemp>
            <ns3:hr>108</ns3:hr>
          </ns3:TrackPointExtension>
        </extensions>
      </trkpt>
      <trkpt lat="50.40775355882942676544189453125" lon="3.6827539466321468353271484375">
        <ele>30.200000762939453125</ele>
        <time>2019-02-24T08:05:44.000Z</time>
        <extensions>
          <ns3:TrackPointExtension>
            <ns3:atemp>10.0</ns3:atemp>
            <ns3:hr>111</ns3:hr>
          </ns3:TrackPointExtension>
        </extensions>
      </trkpt>
      <trkpt lat="50.4077375493943691253662109375" lon="3.68278495967388153076171875">
        <ele>30.3999996185302734375</ele>
        <time>2019-02-24T08:05:45.000Z</time>
        <extensions>
          <ns3:TrackPointExtension>
            <ns3:atemp>10.0</ns3:atemp>
            <ns3:hr>112</ns3:hr>
          </ns3:TrackPointExtension>
        </extensions>
      </trkpt>
      <trkpt lat="50.4076902754604816436767578125" lon="3.68291429243981838226318359375">
        <ele>31</ele>
        <time>2019-02-24T08:05:48.000Z</time>
        <extensions>
          <ns3:TrackPointExtension>
            <ns3:atemp>10.0</ns3:atemp>
            <ns3:hr>116</ns3:hr>
          </ns3:TrackPointExtension>
        </extensions>
      </trkpt>
      <trkpt lat="50.40767602622509002685546875" lon="3.68302761577069759368896484375">
        <ele>31.200000762939453125</ele>
        <time>2019-02-24T08:05:50.000Z</time>
        <extensions>
          <ns3:TrackPointExtension>
            <ns3:atemp>10.0</ns3:atemp>
            <ns3:hr>118</ns3:hr>
          </ns3:TrackPointExtension>
        </extensions>
      </trkpt>
      <trkpt lat="50.40766722522675991058349609375" lon="3.683178238570690155029296875">
        <ele>31.6000003814697265625</ele>
        <time>2019-02-24T08:05:53.000Z</time>
        <extensions>
          <ns3:TrackPointExtension>
            <ns3:atemp>10.0</ns3:atemp>
            <ns3:hr>122</ns3:hr>
          </ns3:TrackPointExtension>
        </extensions>
      </trkpt>
      <trkpt lat="50.40766529738903045654296875" lon="3.68338753469288349151611328125">
        <ele>32.200000762939453125</ele>
        <time>2019-02-24T08:05:57.000Z</time>
        <extensions>
          <ns3:TrackPointExtension>
            <ns3:atemp>10.0</ns3:atemp>
            <ns3:hr>125</ns3:hr>
          </ns3:TrackPointExtension>
        </extensions>
      </trkpt>
      <trkpt lat="50.4076887667179107666015625" lon="3.6836759559810161590576171875">
        <ele>32.59999847412109375</ele>
        <time>2019-02-24T08:06:03.000Z</time>
        <extensions>
          <ns3:TrackPointExtension>
            <ns3:atemp>10.0</ns3:atemp>
            <ns3:hr>126</ns3:hr>
          </ns3:TrackPointExtension>
        </extensions>
      </trkpt>
      <trkpt lat="50.40768633596599102020263671875" lon="3.6840735934674739837646484375">
        <ele>33</ele>
        <time>2019-02-24T08:06:11.000Z</time>
        <extensions>
          <ns3:TrackPointExtension>
            <ns3:atemp>10.0</ns3:atemp>
            <ns3:hr>126</ns3:hr>
          </ns3:TrackPointExtension>
        </extensions>
      </trkpt>
      <trkpt lat="50.4076627828180789947509765625" lon="3.6843109689652919769287109375">
        <ele>33.200000762939453125</ele>
        <time>2019-02-24T08:06:17.000Z</time>
        <extensions>
          <ns3:TrackPointExtension>
            <ns3:atemp>10.0</ns3:atemp>
            <ns3:hr>129</ns3:hr>
          </ns3:TrackPointExtension>
        </extensions>
      </trkpt>
      <trkpt lat="50.40776110254228115081787109375" lon="3.68444818072021007537841796875">
        <ele>33</ele>
        <time>2019-02-24T08:06:22.000Z</time>
        <extensions>
          <ns3:TrackPointExtension>
            <ns3:atemp>10.0</ns3:atemp>
            <ns3:hr>130</ns3:hr>
          </ns3:TrackPointExtension>
        </extensions>
      </trkpt>
      <trkpt lat="50.407932512462139129638671875" lon="3.6845017410814762115478515625">
        <ele>32.40000152587890625</ele>
        <time>2019-02-24T08:06:26.000Z</time>
        <extensions>
          <ns3:TrackPointExtension>
            <ns3:atemp>10.0</ns3:atemp>
            <ns3:hr>130</ns3:hr>
          </ns3:TrackPointExtension>
        </extensions>
      </trkpt>
      <trkpt lat="50.40798313915729522705078125" lon="3.68451900780200958251953125">
        <ele>32.200000762939453125</ele>
        <time>2019-02-24T08:06:27.000Z</time>
        <extensions>
          <ns3:TrackPointExtension>
            <ns3:atemp>10.0</ns3:atemp>
            <ns3:hr>129</ns3:hr>
          </ns3:TrackPointExtension>
        </extensions>
      </trkpt>
      <trkpt lat="50.408226549625396728515625" lon="3.68458966724574565887451171875">
        <ele>32.200000762939453125</ele>
        <time>2019-02-24T08:06:32.000Z</time>
        <extensions>
          <ns3:TrackPointExtension>
            <ns3:atemp>10.0</ns3:atemp>
            <ns3:hr>130</ns3:hr>
          </ns3:TrackPointExtension>
        </extensions>
      </trkpt>
      <trkpt lat="50.40851631201803684234619140625" lon="3.68479267694056034088134765625">
        <ele>32.40000152587890625</ele>
        <time>2019-02-24T08:06:39.000Z</time>
        <extensions>
          <ns3:TrackPointExtension>
            <ns3:atemp>10.0</ns3:atemp>
            <ns3:hr>127</ns3:hr>
          </ns3:TrackPointExtension>
        </extensions>
      </trkpt>
      <trkpt lat="50.4085519351065158843994140625" lon="3.684828467667102813720703125">
        <ele>32.40000152587890625</ele>
        <time>2019-02-24T08:06:40.000Z</time>
        <extensions>
          <ns3:TrackPointExtension>
            <ns3:atemp>10.0</ns3:atemp>
            <ns3:hr>127</ns3:hr>
          </ns3:TrackPointExtension>
        </extensions>
      </trkpt>
      <trkpt lat="50.40868612937629222869873046875" lon="3.6849453113973140716552734375">
        <ele>32.59999847412109375</ele>
        <time>2019-02-24T08:06:44.000Z</time>
        <extensions>
          <ns3:TrackPointExtension>
            <ns3:atemp>10.0</ns3:atemp>
            <ns3:hr>124</ns3:hr>
          </ns3:TrackPointExtension>
        </extensions>
      </trkpt>
      <trkpt lat="50.40880029089748859405517578125" lon="3.6850428767502307891845703125">
        <ele>32.59999847412109375</ele>
        <time>2019-02-24T08:06:47.000Z</time>
        <extensions>
          <ns3:TrackPointExtension>
            <ns3:atemp>9.0</ns3:atemp>
            <ns3:hr>123</ns3:hr>
          </ns3:TrackPointExtension>
        </extensions>
      </trkpt>
      <trkpt lat="50.40896507911384105682373046875" lon="3.6851836927235126495361328125">
        <ele>32.40000152587890625</ele>
        <time>2019-02-24T08:06:51.000Z</time>
        <extensions>
          <ns3:TrackPointExtension>
            <ns3:atemp>9.0</ns3:atemp>
            <ns3:hr>120</ns3:hr>
          </ns3:TrackPointExtension>
        </extensions>
      </trkpt>
      <trkpt lat="50.40914185345172882080078125" lon="3.685317300260066986083984375">
        <ele>31.799999237060546875</ele>
        <time>2019-02-24T08:06:55.000Z</time>
        <extensions>
          <ns3:TrackPointExtension>
            <ns3:atemp>9.0</ns3:atemp>
            <ns3:hr>117</ns3:hr>
          </ns3:TrackPointExtension>
        </extensions>
      </trkpt>
      <trkpt lat="50.4094447754323482513427734375" lon="3.68560538627207279205322265625">
        <ele>30.799999237060546875</ele>
        <time>2019-02-24T08:07:02.000Z</time>
        <extensions>
          <ns3:TrackPointExtension>
            <ns3:atemp>9.0</ns3:atemp>
            <ns3:hr>114</ns3:hr>
          </ns3:TrackPointExtension>
        </extensions>
      </trkpt>
      <trkpt lat="50.40955684147775173187255859375" lon="3.68572776205837726593017578125">
        <ele>30.3999996185302734375</ele>
        <time>2019-02-24T08:07:05.000Z</time>
        <extensions>
          <ns3:TrackPointExtension>
            <ns3:atemp>9.0</ns3:atemp>
            <ns3:hr>114</ns3:hr>
          </ns3:TrackPointExtension>
        </extensions>
      </trkpt>
      <trkpt lat="50.409624986350536346435546875" lon="3.68599330075085163116455078125">
        <ele>30</ele>
        <time>2019-02-24T08:07:09.000Z</time>
        <extensions>
          <ns3:TrackPointExtension>
            <ns3:atemp>9.0</ns3:atemp>
            <ns3:hr>112</ns3:hr>
          </ns3:TrackPointExtension>
        </extensions>
      </trkpt>
      <trkpt lat="50.4096519760787487030029296875" lon="3.686201758682727813720703125">
        <ele>30</ele>
        <time>2019-02-24T08:07:12.000Z</time>
        <extensions>
          <ns3:TrackPointExtension>
            <ns3:atemp>9.0</ns3:atemp>
            <ns3:hr>109</ns3:hr>
          </ns3:TrackPointExtension>
        </extensions>
      </trkpt>
      <trkpt lat="50.40969346649944782257080078125" lon="3.6864084564149379730224609375">
        <ele>30</ele>
        <time>2019-02-24T08:07:15.000Z</time>
        <extensions>
          <ns3:TrackPointExtension>
            <ns3:atemp>9.0</ns3:atemp>
            <ns3:hr>105</ns3:hr>
          </ns3:TrackPointExtension>
        </extensions>
      </trkpt>
      <trkpt lat="50.4097260721027851104736328125" lon="3.68655757047235965728759765625">
        <ele>30</ele>
        <time>2019-02-24T08:07:17.000Z</time>
        <extensions>
          <ns3:TrackPointExtension>
            <ns3:atemp>9.0</ns3:atemp>
            <ns3:hr>104</ns3:hr>
          </ns3:TrackPointExtension>
        </extensions>
      </trkpt>
      <trkpt lat="50.4098528064787387847900390625" lon="3.68705176748335361480712890625">
        <ele>29.799999237060546875</ele>
        <time>2019-02-24T08:07:24.000Z</time>
        <extensions>
          <ns3:TrackPointExtension>
            <ns3:atemp>9.0</ns3:atemp>
            <ns3:hr>106</ns3:hr>
          </ns3:TrackPointExtension>
        </extensions>
      </trkpt>
      <trkpt lat="50.4098994098603725433349609375" lon="3.68725812993943691253662109375">
        <ele>29.799999237060546875</ele>
        <time>2019-02-24T08:07:27.000Z</time>
        <extensions>
          <ns3:TrackPointExtension>
            <ns3:atemp>9.0</ns3:atemp>
            <ns3:hr>110</ns3:hr>
          </ns3:TrackPointExtension>
        </extensions>
      </trkpt>
      <trkpt lat="50.41003561578691005706787109375" lon="3.68784955702722072601318359375">
        <ele>29.799999237060546875</ele>
        <time>2019-02-24T08:07:36.000Z</time>
        <extensions>
          <ns3:TrackPointExtension>
            <ns3:atemp>9.0</ns3:atemp>
            <ns3:hr>109</ns3:hr>
          </ns3:TrackPointExtension>
        </extensions>
      </trkpt>
      <trkpt lat="50.41005539707839488983154296875" lon="3.68796422146260738372802734375">
        <ele>29.799999237060546875</ele>
        <time>2019-02-24T08:07:38.000Z</time>
        <extensions>
          <ns3:TrackPointExtension>
            <ns3:atemp>9.0</ns3:atemp>
            <ns3:hr>106</ns3:hr>
          </ns3:TrackPointExtension>
        </extensions>
      </trkpt>
      <trkpt lat="50.41011792607605457305908203125" lon="3.68831173516809940338134765625">
        <ele>30.200000762939453125</ele>
        <time>2019-02-24T08:07:44.000Z</time>
        <extensions>
          <ns3:TrackPointExtension>
            <ns3:atemp>9.0</ns3:atemp>
            <ns3:hr>109</ns3:hr>
          </ns3:TrackPointExtension>
        </extensions>
      </trkpt>
      <trkpt lat="50.41012882255017757415771484375" lon="3.68837577290832996368408203125">
        <ele>30.200000762939453125</ele>
        <time>2019-02-24T08:07:45.000Z</time>
        <extensions>
          <ns3:TrackPointExtension>
            <ns3:atemp>9.0</ns3:atemp>
            <ns3:hr>109</ns3:hr>
          </ns3:TrackPointExtension>
        </extensions>
      </trkpt>
      <trkpt lat="50.41029545478522777557373046875" lon="3.689034841954708099365234375">
        <ele>30.200000762939453125</ele>
        <time>2019-02-24T08:07:54.000Z</time>
        <extensions>
          <ns3:TrackPointExtension>
            <ns3:atemp>9.0</ns3:atemp>
            <ns3:hr>106</ns3:hr>
          </ns3:TrackPointExtension>
        </extensions>
      </trkpt>
      <trkpt lat="50.4103104583919048309326171875" lon="3.68911170400679111480712890625">
        <ele>30.200000762939453125</ele>
        <time>2019-02-24T08:07:55.000Z</time>
        <extensions>
          <ns3:TrackPointExtension>
            <ns3:atemp>9.0</ns3:atemp>
            <ns3:hr>105</ns3:hr>
          </ns3:TrackPointExtension>
        </extensions>
      </trkpt>
      <trkpt lat="50.410334765911102294921875" lon="3.68926039896905422210693359375">
        <ele>30.200000762939453125</ele>
        <time>2019-02-24T08:07:57.000Z</time>
        <extensions>
          <ns3:TrackPointExtension>
            <ns3:atemp>9.0</ns3:atemp>
            <ns3:hr>102</ns3:hr>
          </ns3:TrackPointExtension>
        </extensions>
      </trkpt>
      <trkpt lat="50.41040643118321895599365234375" lon="3.68968427181243896484375">
        <ele>30</ele>
        <time>2019-02-24T08:08:03.000Z</time>
        <extensions>
          <ns3:TrackPointExtension>
            <ns3:atemp>9.0</ns3:atemp>
            <ns3:hr>105</ns3:hr>
          </ns3:TrackPointExtension>
        </extensions>
      </trkpt>
      <trkpt lat="50.4104331694543361663818359375" lon="3.68982533924281597137451171875">
        <ele>30</ele>
        <time>2019-02-24T08:08:05.000Z</time>
        <extensions>
          <ns3:TrackPointExtension>
            <ns3:atemp>9.0</ns3:atemp>
            <ns3:hr>107</ns3:hr>
          </ns3:TrackPointExtension>
        </extensions>
      </trkpt>
      <trkpt lat="50.4104646854102611541748046875" lon="3.69003052823245525360107421875">
        <ele>30</ele>
        <time>2019-02-24T08:08:08.000Z</time>
        <extensions>
          <ns3:TrackPointExtension>
            <ns3:atemp>9.0</ns3:atemp>
            <ns3:hr>110</ns3:hr>
          </ns3:TrackPointExtension>
        </extensions>
      </trkpt>
      <trkpt lat="50.4105166532099246978759765625" lon="3.6902473680675029754638671875">
        <ele>30</ele>
        <time>2019-02-24T08:08:11.000Z</time>
        <extensions>
          <ns3:TrackPointExtension>
            <ns3:atemp>9.0</ns3:atemp>
            <ns3:hr>113</ns3:hr>
          </ns3:TrackPointExtension>
        </extensions>
      </trkpt>
      <trkpt lat="50.41055797599256038665771484375" lon="3.6904488690197467803955078125">
        <ele>30</ele>
        <time>2019-02-24T08:08:14.000Z</time>
        <extensions>
          <ns3:TrackPointExtension>
            <ns3:atemp>8.0</ns3:atemp>
            <ns3:hr>116</ns3:hr>
          </ns3:TrackPointExtension>
        </extensions>
      </trkpt>
      <trkpt lat="50.4105709679424762725830078125" lon="3.69051164947450160980224609375">
        <ele>30</ele>
        <time>2019-02-24T08:08:15.000Z</time>
        <extensions>
          <ns3:TrackPointExtension>
            <ns3:atemp>8.0</ns3:atemp>
            <ns3:hr>117</ns3:hr>
          </ns3:TrackPointExtension>
        </extensions>
      </trkpt>
      <trkpt lat="50.4105833731591701507568359375" lon="3.69057334028184413909912109375">
        <ele>30</ele>
        <time>2019-02-24T08:08:16.000Z</time>
        <extensions>
          <ns3:TrackPointExtension>
            <ns3:atemp>8.0</ns3:atemp>
            <ns3:hr>118</ns3:hr>
          </ns3:TrackPointExtension>
        </extensions>
      </trkpt>
      <trkpt lat="50.4105944372713565826416015625" lon="3.69063519872725009918212890625">
        <ele>30</ele>
        <time>2019-02-24T08:08:17.000Z</time>
        <extensions>
          <ns3:TrackPointExtension>
            <ns3:atemp>8.0</ns3:atemp>
            <ns3:hr>119</ns3:hr>
          </ns3:TrackPointExtension>
        </extensions>
      </trkpt>
      <trkpt lat="50.4106065072119235992431640625" lon="3.6907013319432735443115234375">
        <ele>30</ele>
        <time>2019-02-24T08:08:18.000Z</time>
        <extensions>
          <ns3:TrackPointExtension>
            <ns3:atemp>8.0</ns3:atemp>
            <ns3:hr>121</ns3:hr>
          </ns3:TrackPointExtension>
        </extensions>
      </trkpt>
      <trkpt lat="50.4106179066002368927001953125" lon="3.6907640285789966583251953125">
        <ele>30</ele>
        <time>2019-02-24T08:08:19.000Z</time>
        <extensions>
          <ns3:TrackPointExtension>
            <ns3:atemp>8.0</ns3:atemp>
            <ns3:hr>122</ns3:hr>
          </ns3:TrackPointExtension>
        </extensions>
      </trkpt>
      <trkpt lat="50.41065772064030170440673828125" lon="3.690957315266132354736328125">
        <ele>30</ele>
        <time>2019-02-24T08:08:22.000Z</time>
        <extensions>
          <ns3:TrackPointExtension>
            <ns3:atemp>8.0</ns3:atemp>
            <ns3:hr>125</ns3:hr>
          </ns3:TrackPointExtension>
        </extensions>
      </trkpt>
      <trkpt lat="50.41069158352911472320556640625" lon="3.6912206746637821197509765625">
        <ele>29.799999237060546875</ele>
        <time>2019-02-24T08:08:26.000Z</time>
        <extensions>
          <ns3:TrackPointExtension>
            <ns3:atemp>8.0</ns3:atemp>
            <ns3:hr>125</ns3:hr>
          </ns3:TrackPointExtension>
        </extensions>
      </trkpt>
      <trkpt lat="50.41072377003729343414306640625" lon="3.69149249978363513946533203125">
        <ele>29.3999996185302734375</ele>
        <time>2019-02-24T08:08:30.000Z</time>
        <extensions>
          <ns3:TrackPointExtension>
            <ns3:atemp>8.0</ns3:atemp>
            <ns3:hr>122</ns3:hr>
          </ns3:TrackPointExtension>
        </extensions>
      </trkpt>
      <trkpt lat="50.41074137203395366668701171875" lon="3.69156139902770519256591796875">
        <ele>29.3999996185302734375</ele>
        <time>2019-02-24T08:08:31.000Z</time>
        <extensions>
          <ns3:TrackPointExtension>
            <ns3:atemp>8.0</ns3:atemp>
            <ns3:hr>122</ns3:hr>
          </ns3:TrackPointExtension>
        </extensions>
      </trkpt>
      <trkpt lat="50.41079333983361721038818359375" lon="3.6916945874691009521484375">
        <ele>29.200000762939453125</ele>
        <time>2019-02-24T08:08:33.000Z</time>
        <extensions>
          <ns3:TrackPointExtension>
            <ns3:atemp>8.0</ns3:atemp>
            <ns3:hr>119</ns3:hr>
          </ns3:TrackPointExtension>
        </extensions>
      </trkpt>
      <trkpt lat="50.4108589701354503631591796875" lon="3.6918241716921329498291015625">
        <ele>29</ele>
        <time>2019-02-24T08:08:35.000Z</time>
        <extensions>
          <ns3:TrackPointExtension>
            <ns3:atemp>8.0</ns3:atemp>
            <ns3:hr>118</ns3:hr>
          </ns3:TrackPointExtension>
        </extensions>
      </trkpt>
      <trkpt lat="50.4108898155391216278076171875" lon="3.69190036319196224212646484375">
        <ele>29</ele>
        <time>2019-02-24T08:08:36.000Z</time>
        <extensions>
          <ns3:TrackPointExtension>
            <ns3:atemp>8.0</ns3:atemp>
            <ns3:hr>119</ns3:hr>
          </ns3:TrackPointExtension>
        </extensions>
      </trkpt>
      <trkpt lat="50.41093759238719940185546875" lon="3.692072443664073944091796875">
        <ele>29</ele>
        <time>2019-02-24T08:08:38.000Z</time>
        <extensions>
          <ns3:TrackPointExtension>
            <ns3:atemp>8.0</ns3:atemp>
            <ns3:hr>118</ns3:hr>
          </ns3:TrackPointExtension>
        </extensions>
      </trkpt>
      <trkpt lat="50.41101043112576007843017578125" lon="3.6924321949481964111328125">
        <ele>29</ele>
        <time>2019-02-24T08:08:42.000Z</time>
        <extensions>
          <ns3:TrackPointExtension>
            <ns3:atemp>8.0</ns3:atemp>
            <ns3:hr>115</ns3:hr>
          </ns3:TrackPointExtension>
        </extensions>
      </trkpt>
      <trkpt lat="50.41104446165263652801513671875" lon="3.69260159321129322052001953125">
        <ele>29.200000762939453125</ele>
        <time>2019-02-24T08:08:44.000Z</time>
        <extensions>
          <ns3:TrackPointExtension>
            <ns3:atemp>8.0</ns3:atemp>
            <ns3:hr>116</ns3:hr>
          </ns3:TrackPointExtension>
        </extensions>
      </trkpt>
      <trkpt lat="50.41106122545897960662841796875" lon="3.6926781199872493743896484375">
        <ele>29.200000762939453125</ele>
        <time>2019-02-24T08:08:45.000Z</time>
        <extensions>
          <ns3:TrackPointExtension>
            <ns3:atemp>8.0</ns3:atemp>
            <ns3:hr>116</ns3:hr>
          </ns3:TrackPointExtension>
        </extensions>
      </trkpt>
      <trkpt lat="50.41107631288468837738037109375" lon="3.692755401134490966796875">
        <ele>29.3999996185302734375</ele>
        <time>2019-02-24T08:08:46.000Z</time>
        <extensions>
          <ns3:TrackPointExtension>
            <ns3:atemp>8.0</ns3:atemp>
            <ns3:hr>118</ns3:hr>
          </ns3:TrackPointExtension>
        </extensions>
      </trkpt>
      <trkpt lat="50.411092154681682586669921875" lon="3.69282840751111507415771484375">
        <ele>29.3999996185302734375</ele>
        <time>2019-02-24T08:08:47.000Z</time>
        <extensions>
          <ns3:TrackPointExtension>
            <ns3:atemp>8.0</ns3:atemp>
            <ns3:hr>118</ns3:hr>
          </ns3:TrackPointExtension>
        </extensions>
      </trkpt>
      <trkpt lat="50.41110514663159847259521484375" lon="3.692897222936153411865234375">
        <ele>29.3999996185302734375</ele>
        <time>2019-02-24T08:08:48.000Z</time>
        <extensions>
          <ns3:TrackPointExtension>
            <ns3:atemp>8.0</ns3:atemp>
            <ns3:hr>118</ns3:hr>
          </ns3:TrackPointExtension>
        </extensions>
      </trkpt>
      <trkpt lat="50.41120715439319610595703125" lon="3.69337624870240688323974609375">
        <ele>30</ele>
        <time>2019-02-24T08:08:55.000Z</time>
        <extensions>
          <ns3:TrackPointExtension>
            <ns3:atemp>8.0</ns3:atemp>
            <ns3:hr>117</ns3:hr>
          </ns3:TrackPointExtension>
        </extensions>
      </trkpt>
      <trkpt lat="50.4113025404512882232666015625" lon="3.6937845312058925628662109375">
        <ele>30.3999996185302734375</ele>
        <time>2019-02-24T08:09:01.000Z</time>
        <extensions>
          <ns3:TrackPointExtension>
            <ns3:atemp>8.0</ns3:atemp>
            <ns3:hr>116</ns3:hr>
          </ns3:TrackPointExtension>
        </extensions>
      </trkpt>
      <trkpt lat="50.4114041291177272796630859375" lon="3.6943933926522731781005859375">
        <ele>31.200000762939453125</ele>
        <time>2019-02-24T08:09:10.000Z</time>
        <extensions>
          <ns3:TrackPointExtension>
            <ns3:atemp>8.0</ns3:atemp>
            <ns3:hr>118</ns3:hr>
          </ns3:TrackPointExtension>
        </extensions>
      </trkpt>
      <trkpt lat="50.411381833255290985107421875" lon="3.69466873817145824432373046875">
        <ele>31.799999237060546875</ele>
        <time>2019-02-24T08:09:14.000Z</time>
        <extensions>
          <ns3:TrackPointExtension>
            <ns3:atemp>8.0</ns3:atemp>
            <ns3:hr>120</ns3:hr>
          </ns3:TrackPointExtension>
        </extensions>
      </trkpt>
      <trkpt lat="50.41135878302156925201416015625" lon="3.69480586610734462738037109375">
        <ele>32</ele>
        <time>2019-02-24T08:09:16.000Z</time>
        <extensions>
          <ns3:TrackPointExtension>
            <ns3:atemp>8.0</ns3:atemp>
            <ns3:hr>121</ns3:hr>
          </ns3:TrackPointExtension>
        </extensions>
      </trkpt>
      <trkpt lat="50.4113488085567951202392578125" lon="3.6948755197227001190185546875">
        <ele>32.200000762939453125</ele>
        <time>2019-02-24T08:09:17.000Z</time>
        <extensions>
          <ns3:TrackPointExtension>
            <ns3:atemp>8.0</ns3:atemp>
            <ns3:hr>121</ns3:hr>
          </ns3:TrackPointExtension>
        </extensions>
      </trkpt>
      <trkpt lat="50.41134252212941646575927734375" lon="3.6949429102241992950439453125">
        <ele>32.40000152587890625</ele>
        <time>2019-02-24T08:09:18.000Z</time>
        <extensions>
          <ns3:TrackPointExtension>
            <ns3:atemp>8.0</ns3:atemp>
            <ns3:hr>122</ns3:hr>
          </ns3:TrackPointExtension>
        </extensions>
      </trkpt>
      <trkpt lat="50.41133548133075237274169921875" lon="3.69501180946826934814453125">
        <ele>32.59999847412109375</ele>
        <time>2019-02-24T08:09:19.000Z</time>
        <extensions>
          <ns3:TrackPointExtension>
            <ns3:atemp>8.0</ns3:atemp>
            <ns3:hr>123</ns3:hr>
          </ns3:TrackPointExtension>
        </extensions>
      </trkpt>
      <trkpt lat="50.4113246686756610870361328125" lon="3.6950783617794513702392578125">
        <ele>32.799999237060546875</ele>
        <time>2019-02-24T08:09:20.000Z</time>
        <extensions>
          <ns3:TrackPointExtension>
            <ns3:atemp>8.0</ns3:atemp>
            <ns3:hr>123</ns3:hr>
          </ns3:TrackPointExtension>
        </extensions>
      </trkpt>
      <trkpt lat="50.41127764619886875152587890625" lon="3.695423193275928497314453125">
        <ele>33.40000152587890625</ele>
        <time>2019-02-24T08:09:25.000Z</time>
        <extensions>
          <ns3:TrackPointExtension>
            <ns3:atemp>8.0</ns3:atemp>
            <ns3:hr>126</ns3:hr>
          </ns3:TrackPointExtension>
        </extensions>
      </trkpt>
      <trkpt lat="50.4112495668232440948486328125" lon="3.6956278793513774871826171875">
        <ele>33.59999847412109375</ele>
        <time>2019-02-24T08:09:28.000Z</time>
        <extensions>
          <ns3:TrackPointExtension>
            <ns3:atemp>8.0</ns3:atemp>
            <ns3:hr>127</ns3:hr>
          </ns3:TrackPointExtension>
        </extensions>
      </trkpt>
      <trkpt lat="50.41118594817817211151123046875" lon="3.696027360856533050537109375">
        <ele>34.200000762939453125</ele>
        <time>2019-02-24T08:09:34.000Z</time>
        <extensions>
          <ns3:TrackPointExtension>
            <ns3:atemp>8.0</ns3:atemp>
            <ns3:hr>128</ns3:hr>
          </ns3:TrackPointExtension>
        </extensions>
      </trkpt>
      <trkpt lat="50.4111432842910289764404296875" lon="3.69615702889859676361083984375">
        <ele>34.40000152587890625</ele>
        <time>2019-02-24T08:09:36.000Z</time>
        <extensions>
          <ns3:TrackPointExtension>
            <ns3:atemp>8.0</ns3:atemp>
            <ns3:hr>128</ns3:hr>
          </ns3:TrackPointExtension>
        </extensions>
      </trkpt>
      <trkpt lat="50.4110896401107311248779296875" lon="3.69627638719975948333740234375">
        <ele>34.59999847412109375</ele>
        <time>2019-02-24T08:09:38.000Z</time>
        <extensions>
          <ns3:TrackPointExtension>
            <ns3:atemp>8.0</ns3:atemp>
            <ns3:hr>129</ns3:hr>
          </ns3:TrackPointExtension>
        </extensions>
      </trkpt>
      <trkpt lat="50.4110604710876941680908203125" lon="3.696330450475215911865234375">
        <ele>34.59999847412109375</ele>
        <time>2019-02-24T08:09:39.000Z</time>
        <extensions>
          <ns3:TrackPointExtension>
            <ns3:atemp>8.0</ns3:atemp>
            <ns3:hr>130</ns3:hr>
          </ns3:TrackPointExtension>
        </extensions>
      </trkpt>
      <trkpt lat="50.411031804978847503662109375" lon="3.69638132862746715545654296875">
        <ele>34.799999237060546875</ele>
        <time>2019-02-24T08:09:40.000Z</time>
        <extensions>
          <ns3:TrackPointExtension>
            <ns3:atemp>8.0</ns3:atemp>
            <ns3:hr>130</ns3:hr>
          </ns3:TrackPointExtension>
        </extensions>
      </trkpt>
      <trkpt lat="50.4110007919371128082275390625" lon="3.696435727179050445556640625">
        <ele>34.799999237060546875</ele>
        <time>2019-02-24T08:09:41.000Z</time>
        <extensions>
          <ns3:TrackPointExtension>
            <ns3:atemp>8.0</ns3:atemp>
            <ns3:hr>131</ns3:hr>
          </ns3:TrackPointExtension>
        </extensions>
      </trkpt>
      <trkpt lat="50.41097086854279041290283203125" lon="3.6964892037212848663330078125">
        <ele>35</ele>
        <time>2019-02-24T08:09:42.000Z</time>
        <extensions>
          <ns3:TrackPointExtension>
            <ns3:atemp>8.0</ns3:atemp>
            <ns3:hr>131</ns3:hr>
          </ns3:TrackPointExtension>
        </extensions>
      </trkpt>
      <trkpt lat="50.410747490823268890380859375" lon="3.69695113040506839752197265625">
        <ele>35</ele>
        <time>2019-02-24T08:09:50.000Z</time>
        <extensions>
          <ns3:TrackPointExtension>
            <ns3:atemp>8.0</ns3:atemp>
            <ns3:hr>134</ns3:hr>
          </ns3:TrackPointExtension>
        </extensions>
      </trkpt>
      <trkpt lat="50.410719327628612518310546875" lon="3.6970953829586505889892578125">
        <ele>35</ele>
        <time>2019-02-24T08:09:52.000Z</time>
        <extensions>
          <ns3:TrackPointExtension>
            <ns3:atemp>8.0</ns3:atemp>
            <ns3:hr>134</ns3:hr>
          </ns3:TrackPointExtension>
        </extensions>
      </trkpt>
      <trkpt lat="50.41073667816817760467529296875" lon="3.69740073569118976593017578125">
        <ele>35.40000152587890625</ele>
        <time>2019-02-24T08:09:56.000Z</time>
        <extensions>
          <ns3:TrackPointExtension>
            <ns3:atemp>8.0</ns3:atemp>
            <ns3:hr>136</ns3:hr>
          </ns3:TrackPointExtension>
        </extensions>
      </trkpt>
      <trkpt lat="50.4107493348419666290283203125" lon="3.6974826268851757049560546875">
        <ele>35.40000152587890625</ele>
        <time>2019-02-24T08:09:57.000Z</time>
        <extensions>
          <ns3:TrackPointExtension>
            <ns3:atemp>8.0</ns3:atemp>
            <ns3:hr>136</ns3:hr>
          </ns3:TrackPointExtension>
        </extensions>
      </trkpt>
      <trkpt lat="50.41089794598519802093505859375" lon="3.69821612723171710968017578125">
        <ele>36.200000762939453125</ele>
        <time>2019-02-24T08:10:06.000Z</time>
        <extensions>
          <ns3:TrackPointExtension>
            <ns3:atemp>8.0</ns3:atemp>
            <ns3:hr>136</ns3:hr>
          </ns3:TrackPointExtension>
        </extensions>
      </trkpt>
      <trkpt lat="50.41106709279119968414306640625" lon="3.69904140941798686981201171875">
        <ele>36.40000152587890625</ele>
        <time>2019-02-24T08:10:16.000Z</time>
        <extensions>
          <ns3:TrackPointExtension>
            <ns3:atemp>8.0</ns3:atemp>
            <ns3:hr>133</ns3:hr>
          </ns3:TrackPointExtension>
        </extensions>
      </trkpt>
      <trkpt lat="50.4110805876553058624267578125" lon="3.699119277298450469970703125">
        <ele>36.200000762939453125</ele>
        <time>2019-02-24T08:10:17.000Z</time>
        <extensions>
          <ns3:TrackPointExtension>
            <ns3:atemp>8.0</ns3:atemp>
            <ns3:hr>133</ns3:hr>
          </ns3:TrackPointExtension>
        </extensions>
      </trkpt>
      <trkpt lat="50.41112425737082958221435546875" lon="3.6993393860757350921630859375">
        <ele>36.200000762939453125</ele>
        <time>2019-02-24T08:10:20.000Z</time>
        <extensions>
          <ns3:TrackPointExtension>
            <ns3:atemp>8.0</ns3:atemp>
            <ns3:hr>130</ns3:hr>
          </ns3:TrackPointExtension>
        </extensions>
      </trkpt>
      <trkpt lat="50.41115543805062770843505859375" lon="3.69948062114417552947998046875">
        <ele>36.200000762939453125</ele>
        <time>2019-02-24T08:10:22.000Z</time>
        <extensions>
          <ns3:TrackPointExtension>
            <ns3:atemp>8.0</ns3:atemp>
            <ns3:hr>127</ns3:hr>
          </ns3:TrackPointExtension>
        </extensions>
      </trkpt>
      <trkpt lat="50.41118594817817211151123046875" lon="3.69961221702396869659423828125">
        <ele>36.200000762939453125</ele>
        <time>2019-02-24T08:10:24.000Z</time>
        <extensions>
          <ns3:TrackPointExtension>
            <ns3:atemp>8.0</ns3:atemp>
            <ns3:hr>122</ns3:hr>
          </ns3:TrackPointExtension>
        </extensions>
      </trkpt>
      <trkpt lat="50.41121126152575016021728515625" lon="3.6997326649725437164306640625">
        <ele>36.200000762939453125</ele>
        <time>2019-02-24T08:10:26.000Z</time>
        <extensions>
          <ns3:TrackPointExtension>
            <ns3:atemp>7.0</ns3:atemp>
            <ns3:hr>118</ns3:hr>
          </ns3:TrackPointExtension>
        </extensions>
      </trkpt>
      <trkpt lat="50.41123154573142528533935546875" lon="3.6998526938259601593017578125">
        <ele>36.200000762939453125</ele>
        <time>2019-02-24T08:10:28.000Z</time>
        <extensions>
          <ns3:TrackPointExtension>
            <ns3:atemp>7.0</ns3:atemp>
            <ns3:hr>115</ns3:hr>
          </ns3:TrackPointExtension>
        </extensions>
      </trkpt>
      <trkpt lat="50.41125635616481304168701171875" lon="3.70001840405166149139404296875">
        <ele>36</ele>
        <time>2019-02-24T08:10:31.000Z</time>
        <extensions>
          <ns3:TrackPointExtension>
            <ns3:atemp>7.0</ns3:atemp>
            <ns3:hr>112</ns3:hr>
          </ns3:TrackPointExtension>
        </extensions>
      </trkpt>
      <trkpt lat="50.41127420961856842041015625" lon="3.70006735436618328094482421875">
        <ele>36</ele>
        <time>2019-02-24T08:10:32.000Z</time>
        <extensions>
          <ns3:TrackPointExtension>
            <ns3:atemp>7.0</ns3:atemp>
            <ns3:hr>111</ns3:hr>
          </ns3:TrackPointExtension>
        </extensions>
      </trkpt>
      <trkpt lat="50.41133313439786434173583984375" lon="3.7001457251608371734619140625">
        <ele>36</ele>
        <time>2019-02-24T08:10:34.000Z</time>
        <extensions>
          <ns3:TrackPointExtension>
            <ns3:atemp>7.0</ns3:atemp>
            <ns3:hr>112</ns3:hr>
          </ns3:TrackPointExtension>
        </extensions>
      </trkpt>
      <trkpt lat="50.41141762398183345794677734375" lon="3.70013943873345851898193359375">
        <ele>35.799999237060546875</ele>
        <time>2019-02-24T08:10:36.000Z</time>
        <extensions>
          <ns3:TrackPointExtension>
            <ns3:atemp>7.0</ns3:atemp>
            <ns3:hr>112</ns3:hr>
          </ns3:TrackPointExtension>
        </extensions>
      </trkpt>
      <trkpt lat="50.41168970055878162384033203125" lon="3.69995805434882640838623046875">
        <ele>35.200000762939453125</ele>
        <time>2019-02-24T08:10:42.000Z</time>
        <extensions>
          <ns3:TrackPointExtension>
            <ns3:atemp>7.0</ns3:atemp>
            <ns3:hr>112</ns3:hr>
          </ns3:TrackPointExtension>
        </extensions>
      </trkpt>
      <trkpt lat="50.41187636554241180419921875" lon="3.699832744896411895751953125">
        <ele>34.59999847412109375</ele>
        <time>2019-02-24T08:10:46.000Z</time>
        <extensions>



Partager le fichier

Télécharger QuiévrainChievres60Kms.gpx

Télécharger le fichier (1 Ko)